Terminal Aerodrome Forecast
Issued by NWS Sterling, VA

Home | Current Version | Previous Version | Text Only | Print | Product List | Glossary On
Versions: 1 2 3 4 5 6 7 8 9 10 11 12 13 14 15 16 17 18 19 20 21 22
000
FTUS41 KLWX 021743
TAFDCA
TAF
KDCA 021743Z 0218/0318 16007KT P6SM BKN025
     FM022100 20008KT P6SM SCT040
     FM030000 21004KT P6SM -SHRA VCTS OVC060CB
     FM030400 36004KT P6SM -SHRA VCTS OVC050CB
     FM030600 VRB04KT 3SM -RA BR OVC008
     FM031200 34007KT P6SM -RA OVC008
     FM031400 36006KT P6SM -SHRA OVC015=

USA.gov is the U.S. government's official web portal to all federal, state and local government web resources and services.